Time;durP1;ratioP1;P1;durP2;ratioP2;P2;SDS_P1;SDS_P2;PMS_P1;PMS_P2;Temp;Humidity;BMP_temperature;BMP_pressure;BME280_temperature;BME280_humidity;BME280_pressure;Samples;Min_cycle;Max_cycle;Signal;HPM_P1;HPM_P2
2023/09/27 00:02:13;;;;;;;5.03;2.50;;;;;;;12.56;100.00;149263.47;4914953;28;20227;-65
2023/09/27 00:04:40;;;;;;;5.13;2.90;;;;;;;12.56;100.00;149263.47;4915066;28;20236;-63
2023/09/27 00:07:06;;;;;;;3.87;2.77;;;;;;;12.52;100.00;149254.75;4918321;28;20238;-63
2023/09/27 00:09:36;;;;;;;3.50;3.00;;;;;;;12.49;100.00;149246.00;4912249;28;20232;-63
2023/09/27 00:12:04;;;;;;;5.70;2.97;;;;;;;12.43;100.00;149232.31;4917989;28;20261;-63
2023/09/27 00:14:31;;;;;;;4.97;3.10;;;;;;;12.45;100.00;149236.03;4916968;28;20701;-63
2023/09/27 00:17:03;;;;;;;7.00;2.97;;;;;;;12.40;100.00;149224.84;4914886;28;20329;-63
2023/09/27 00:19:30;;;;;;;5.00;2.53;;;;;;;12.35;100.00;149212.38;4914797;28;20231;-65
2023/09/27 00:22:02;;;;;;;4.20;3.10;;;;;;;12.24;100.00;149187.44;4918107;28;20719;-63
2023/09/27 00:24:28;;;;;;;5.60;3.00;;;;;;;12.20;100.00;149177.44;4918896;28;20734;-63
2023/09/27 00:27:21;;;;;;;3.57;2.70;;;;;;;12.12;100.00;149157.50;4917317;28;20235;-64
2023/09/27 00:29:48;;;;;;;4.10;2.83;;;;;;;12.07;100.00;149145.03;4914627;28;20215;-64
2023/09/27 00:32:15;;;;;;;4.07;3.07;;;;;;;12.03;100.00;149135.06;4918228;28;20247;-65
2023/09/27 00:34:41;;;;;;;4.67;3.00;;;;;;;11.93;100.00;149112.56;4921129;28;20219;-63
2023/09/27 00:37:08;;;;;;;6.50;3.27;;;;;;;11.89;100.00;149102.59;4914204;28;20333;-63
2023/09/27 00:39:36;;;;;;;4.93;3.43;;;;;;;11.86;100.00;149093.91;4916539;28;20237;-63
2023/09/27 00:42:03;;;;;;;5.00;3.73;;;;;;;11.80;100.00;149081.44;4922360;28;20228;-64
2023/09/27 00:44:31;;;;;;;6.47;3.60;;;;;;;11.80;100.00;149080.16;4916097;28;20225;-63
2023/09/27 00:47:04;;;;;;;5.13;3.13;;;;;;;11.82;100.00;149085.16;4917016;28;20231;-64
2023/09/27 00:49:32;;;;;;;9.67;4.20;;;;;;;11.78;100.00;149075.16;4924307;28;20244;-64
2023/09/27 00:52:05;;;;;;;6.53;4.63;;;;;;;11.71;100.00;149057.72;4928603;28;20267;-62
2023/09/27 00:54:32;;;;;;;7.60;5.10;;;;;;;11.73;100.00;149063.97;4934668;28;20223;-64
2023/09/27 00:57:03;;;;;;;7.90;5.00;;;;;;;11.69;100.00;149054.00;4914567;28;20239;-65
2023/09/27 00:59:31;;;;;;;11.43;5.30;;;;;;;11.63;100.00;149040.31;4917675;28;20729;-63
2023/09/27 01:02:02;;;;;;;8.13;5.03;;;;;;;11.59;100.00;149029.06;4915314;28;20809;-64
2023/09/27 01:04:29;;;;;;;6.33;4.30;;;;;;;11.56;100.00;149022.88;4917373;28;20227;-64
2023/09/27 01:07:02;;;;;;;4.07;3.47;;;;;;;11.50;100.00;149007.91;4911397;28;20244;-65
2023/09/27 01:09:32;;;;;;;4.20;3.63;;;;;;;11.42;100.00;148989.19;4914629;29;20235;-64
2023/09/27 01:12:02;;;;;;;5.40;3.50;;;;;;;11.43;100.00;148990.47;4929892;28;20236;-64
2023/09/27 01:14:31;;;;;;;7.90;3.10;;;;;;;11.50;100.00;149007.91;4917867;28;20272;-64
2023/09/27 01:17:09;;;;;;;5.17;3.30;;;;;;;11.48;100.00;149004.16;4915233;28;20270;-64
2023/09/27 01:19:36;;;;;;;6.20;3.20;;;;;;;11.41;100.00;148985.47;4932906;28;20764;-64
2023/09/27 01:22:02;;;;;;;4.07;3.23;;;;;;;11.38;100.00;148979.22;4934457;28;20250;-64
2023/09/27 01:24:31;;;;;;;5.33;3.20;;;;;;;11.36;100.00;148974.25;4920651;28;20325;-64
2023/09/27 01:27:05;;;;;;;7.43;3.20;;;;;;;11.41;100.00;148985.47;4925082;28;20331;-64
2023/09/27 01:29:32;;;;;;;7.00;3.53;;;;;;;11.47;100.00;149000.44;4934959;28;20234;-64
2023/09/27 01:32:02;;;;;;;6.40;3.60;;;;;;;11.42;100.00;148987.97;4912534;28;20228;-64
2023/09/27 01:34:29;;;;;;;4.43;3.17;;;;;;;11.35;100.00;148973.03;4917744;28;20246;-64
2023/09/27 01:37:20;;;;;;;4.73;3.27;;;;;;;11.30;100.00;148960.56;4912801;28;20622;-64
2023/09/27 01:39:48;;;;;;;6.27;2.83;;;;;;;11.28;100.00;148954.31;4918176;28;20223;-65
2023/09/27 01:42:15;;;;;;;5.43;2.87;;;;;;;11.22;100.00;148941.84;4916749;28;20335;-65
2023/09/27 01:44:41;;;;;;;4.63;3.00;;;;;;;11.21;100.00;148938.13;4923999;28;20267;-65
2023/09/27 01:47:08;;;;;;;4.53;2.93;;;;;;;11.19;100.00;148933.13;4929113;28;20225;-65
2023/09/27 01:49:35;;;;;;;4.53;3.30;;;;;;;11.33;100.00;148966.75;4913761;28;20277;-65
2023/09/27 01:52:02;;;;;;;6.70;3.50;;;;;;;11.30;100.00;148960.56;4916459;28;20290;-65
2023/09/27 01:54:29;;;;;;;6.00;3.20;;;;;;;11.35;100.00;148973.03;4917234;28;20603;-65
2023/09/27 01:57:21;;;;;;;3.43;2.97;;;;;;;11.30;100.00;148960.56;4914218;28;20230;-65
2023/09/27 01:59:48;;;;;;;5.53;3.20;;;;;;;11.35;100.00;148973.03;4913532;28;20233;-65
2023/09/27 02:02:18;;;;;;;6.27;3.37;;;;;;;11.34;100.00;148970.53;4922727;28;20332;-65
2023/09/27 02:04:44;;;;;;;3.43;3.10;;;;;;;11.41;100.00;148985.47;4927125;28;20686;-65
2023/09/27 02:07:11;;;;;;;5.30;3.17;;;;;;;11.48;100.00;149004.16;4913282;28;20228;-65
2023/09/27 02:09:38;;;;;;;5.87;3.00;;;;;;;11.53;100.00;149015.38;4913399;28;20227;-65
2023/09/27 02:12:07;;;;;;;4.77;3.27;;;;;;;11.62;100.00;149036.56;4917278;28;20580;-65
2023/09/27 02:14:35;;;;;;;3.67;2.90;;;;;;;11.57;100.00;149024.09;4929468;28;20231;-65
2023/09/27 02:17:02;;;;;;;5.00;3.30;;;;;;;11.56;100.00;149021.59;4916923;28;20236;-65
2023/09/27 02:19:29;;;;;;;4.20;3.10;;;;;;;11.58;100.00;149026.59;4932219;28;20256;-65
2023/09/27 02:22:02;;;;;;;4.30;3.03;;;;;;;11.63;100.00;149039.03;4918994;28;20246;-65
2023/09/27 02:24:29;;;;;;;3.80;2.83;;;;;;;11.65;100.00;149045.31;4933656;28;20722;-65
2023/09/27 02:27:02;;;;;;;3.60;3.20;;;;;;;11.75;100.00;149068.97;4917474;28;20303;-65
2023/09/27 02:29:28;;;;;;;3.97;2.70;;;;;;;11.75;100.00;149067.69;4917369;29;20238;-65
2023/09/27 02:32:21;;;;;;;3.60;2.40;;;;;;;11.71;100.00;149059.00;4915786;28;20249;-65
2023/09/27 02:34:48;;;;;;;4.70;2.90;;;;;;;11.71;100.00;149059.00;4931281;28;20242;-65
2023/09/27 02:37:15;;;;;;;3.57;2.77;;;;;;;11.80;100.00;149081.44;4927702;28;20872;-65
2023/09/27 02:39:42;;;;;;;5.93;3.10;;;;;;;11.72;100.00;149060.22;4923975;28;20246;-65
2023/09/27 02:42:10;;;;;;;4.30;3.00;;;;;;;11.69;100.00;149054.00;4926713;28;20870;-65
2023/09/27 02:44:37;;;;;;;4.00;2.30;;;;;;;11.63;100.00;149039.03;4917662;28;20937;-65
2023/09/27 02:47:04;;;;;;;4.93;2.50;;;;;;;11.67;100.00;149050.25;4924690;28;20235;-65
2023/09/27 02:49:34;;;;;;;3.07;2.30;;;;;;;11.57;100.00;149024.09;4936523;28;20239;-65
2023/09/27 02:52:02;;;;;;;3.70;2.47;;;;;;;11.43;100.00;148991.69;4915810;28;20242;-65
2023/09/27 02:54:29;;;;;;;2.40;2.13;;;;;;;11.36;100.00;148975.50;4922913;29;20242;-65
2023/09/27 02:57:02;;;;;;;4.30;2.27;;;;;;;11.44;100.00;148992.97;4916070;28;20239;-65
2023/09/27 02:59:29;;;;;;;2.57;2.37;;;;;;;11.51;100.00;149010.41;4920208;28;20594;-65
2023/09/27 03:02:04;;;;;;;4.07;2.37;;;;;;;11.56;100.00;149022.88;4915405;28;20552;-65
2023/09/27 03:04:32;;;;;;;3.30;2.67;;;;;;;11.50;100.00;149007.91;4919035;29;20244;-65
2023/09/27 03:07:08;;;;;;;3.00;2.13;;;;;;;11.42;100.00;148987.97;4915954;29;20236;-65
2023/09/27 03:09:36;;;;;;;3.50;2.60;;;;;;;11.35;100.00;148971.75;4918153;28;20226;-65
2023/09/27 03:12:03;;;;;;;5.10;2.33;;;;;;;11.28;100.00;148955.56;4934217;28;20247;-65
2023/09/27 03:14:30;;;;;;;3.90;2.40;;;;;;;11.23;100.00;148943.09;4927332;28;20238;-65
2023/09/27 03:17:02;;;;;;;8.53;2.80;;;;;;;11.21;100.00;148938.13;4916974;28;20245;-65
2023/09/27 03:19:29;;;;;;;2.77;2.37;;;;;;;11.13;100.00;148918.19;4927160;28;20228;-65
2023/09/27 03:22:22;;;;;;;2.67;2.23;;;;;;;11.16;100.00;148925.66;4916848;28;20241;-65
2023/09/27 03:24:48;;;;;;;5.17;2.60;;;;;;;11.05;100.00;148900.75;4912890;28;20314;-65
2023/09/27 03:27:16;;;;;;;3.53;2.47;;;;;;;11.00;100.00;148887.06;4918139;28;20730;-65
2023/09/27 03:29:43;;;;;;;3.83;2.53;;;;;;;10.93;100.00;148870.84;4931726;28;20225;-65
2023/09/27 03:32:10;;;;;;;4.10;2.43;;;;;;;10.87;100.00;148855.88;5131641;23;20245;-50
2023/09/27 03:34:37;;;;;;;4.80;2.40;;;;;;;10.83;100.00;148845.94;4912294;29;20246;-50
2023/09/27 03:37:10;;;;;;;5.60;2.93;;;;;;;10.85;100.00;148850.91;4917138;28;20348;-50
2023/09/27 03:39:43;;;;;;;3.87;2.60;;;;;;;10.86;100.00;148854.66;4929390;28;20317;-51
2023/09/27 03:42:16;;;;;;;4.33;2.60;;;;;;;10.80;100.00;148838.44;4905869;29;20242;-52
2023/09/27 03:44:43;;;;;;;4.50;3.50;;;;;;;10.75;100.00;148828.50;4899432;29;20228;-50
2023/09/27 03:47:11;;;;;;;5.10;2.70;;;;;;;10.69;100.00;148813.53;4913364;29;20699;-52
2023/09/27 03:49:38;;;;;;;8.53;2.83;;;;;;;10.58;100.00;148787.41;4914762;29;20241;-52
2023/09/27 03:52:05;;;;;;;4.73;3.30;;;;;;;10.52;100.00;148772.47;4900848;29;20332;-51
2023/09/27 03:54:32;;;;;;;4.83;3.40;;;;;;;10.50;100.00;148766.25;4913118;29;20258;-50
2023/09/27 03:57:04;;;;;;;3.83;3.00;;;;;;;10.45;100.00;148756.28;4896288;29;20240;-50
2023/09/27 03:59:31;;;;;;;3.93;2.97;;;;;;;10.47;100.00;148761.28;4911289;29;20269;-52
2023/09/27 04:02:02;;;;;;;5.03;3.10;;;;;;;10.37;100.00;148736.31;4896366;29;20243;-50
2023/09/27 04:04:29;;;;;;;6.17;3.13;;;;;;;10.32;100.00;148725.09;4913950;29;20311;-51
2023/09/27 04:07:22;;;;;;;5.13;3.50;;;;;;;10.36;100.00;148733.81;4896599;29;20717;-50
2023/09/27 04:09:53;;;;;;;6.10;3.83;;;;;;;10.45;100.00;148755.03;4911532;29;20231;-51
2023/09/27 04:12:26;;;;;;;5.03;3.13;;;;;;;10.36;100.00;148733.81;4898943;29;20240;-51
2023/09/27 04:14:57;;;;;;;5.67;2.93;;;;;;;10.30;100.00;148718.88;4896988;29;20258;-51
2023/09/27 04:17:23;;;;;;;6.27;4.00;;;;;;;10.38;100.00;148737.53;4912685;28;20236;-51
2023/09/27 04:19:51;;;;;;;4.03;3.20;;;;;;;10.37;100.00;148736.31;4896838;29;20593;-51
2023/09/27 04:22:17;;;;;;;4.53;3.20;;;;;;;10.28;100.00;148715.13;4897897;29;20255;-51
2023/09/27 04:24:44;;;;;;;4.20;3.20;;;;;;;10.24;100.00;148703.94;4899319;29;20235;-51
2023/09/27 04:27:11;;;;;;;4.17;3.07;;;;;;;10.18;100.00;148690.22;4898126;29;20333;-50
2023/09/27 04:29:39;;;;;;;5.20;3.27;;;;;;;10.25;100.00;148706.44;4898079;29;20593;-51
2023/09/27 04:32:06;;;;;;;3.78;3.40;;;;;;;10.22;100.00;148698.94;4898227;29;20437;-52
2023/09/27 04:34:32;;;;;;;5.77;3.40;;;;;;;10.23;100.00;148702.66;4896602;29;20750;-51
2023/09/27 04:37:02;;;;;;;6.03;3.50;;;;;;;10.13;100.00;148679.03;4897409;29;20321;-50
2023/09/27 04:39:31;;;;;;;4.97;3.30;;;;;;;10.15;100.00;148682.75;4898487;29;20248;-51
2023/09/27 04:42:02;;;;;;;5.93;3.13;;;;;;;10.14;100.00;148681.53;4894572;29;20244;-51
2023/09/27 04:44:28;;;;;;;3.77;2.87;;;;;;;10.04;100.00;148657.88;4897755;29;20333;-50
2023/09/27 04:47:22;;;;;;;4.30;3.20;;;;;;;9.98;100.00;148641.69;4895743;28;20322;-51
2023/09/27 04:49:48;;;;;;;7.03;3.57;;;;;;;9.93;100.00;148629.22;4894231;29;21071;-51
2023/09/27 04:52:15;;;;;;;5.27;3.20;;;;;;;9.88;100.00;148618.03;4898797;29;20239;-50
2023/09/27 04:54:42;;;;;;;4.87;3.63;;;;;;;9.85;100.00;148611.78;4897865;29;20592;-50
2023/09/27 04:57:08;;;;;;;5.27;3.40;;;;;;;9.86;100.00;148613.06;4899617;29;20237;-51
2023/09/27 04:59:36;;;;;;;7.70;3.17;;;;;;;9.94;100.00;148631.72;4897275;29;20711;-50
2023/09/27 05:02:03;;;;;;;5.87;3.20;;;;;;;9.90;100.00;148623.03;4897335;28;20244;-50
2023/09/27 05:04:31;;;;;;;5.17;3.90;;;;;;;9.86;100.00;148614.28;4898698;29;20228;-50
2023/09/27 05:07:03;;;;;;;5.27;3.10;;;;;;;9.85;100.00;148610.56;4896574;29;20588;-50
2023/09/27 05:09:54;;;;;;;5.20;3.40;;;;;;;9.92;100.00;148628.00;4896131;29;20314;-51
2023/09/27 05:12:21;;;;;;;4.40;3.37;;;;;;;9.88;100.00;148619.25;4893813;29;20250;-50
2023/09/27 05:14:48;;;;;;;5.03;3.57;;;;;;;9.88;100.00;148618.03;4897384;29;20557;-51
2023/09/27 05:17:14;;;;;;;6.10;3.40;;;;;;;9.98;100.00;148642.94;4898800;29;20254;-50
2023/09/27 05:19:42;;;;;;;4.77;3.37;;;;;;;9.99;100.00;148645.44;4897676;29;20222;-51
2023/09/27 05:22:09;;;;;;;8.77;3.80;;;;;;;10.10;100.00;148671.56;4898110;29;20233;-51
2023/09/27 05:24:38;;;;;;;4.67;3.30;;;;;;;10.08;100.00;148666.59;4896500;29;20226;-51
2023/09/27 05:27:06;;;;;;;4.80;3.00;;;;;;;10.07;100.00;148664.09;4898069;29;20254;-50
2023/09/27 05:29:33;;;;;;;3.63;3.00;;;;;;;10.07;100.00;148662.88;4897862;29;20240;-50
2023/09/27 05:32:02;;;;;;;6.53;3.60;;;;;;;10.03;100.00;148654.13;4895792;28;20259;-50
2023/09/27 05:34:30;;;;;;;7.17;2.93;;;;;;;10.08;100.00;148666.59;4899032;29;20250;-50
2023/09/27 05:37:03;;;;;;;6.30;3.30;;;;;;;10.09;100.00;148669.06;4897249;28;20358;-50
2023/09/27 05:39:30;;;;;;;7.53;4.33;;;;;;;10.26;100.00;148708.91;4898190;29;20240;-50
2023/09/27 05:42:02;;;;;;;4.37;3.20;;;;;;;10.27;100.00;148712.63;4896590;28;20239;-50
2023/09/27 05:44:28;;;;;;;7.00;3.50;;;;;;;10.26;100.00;148710.13;4899853;29;20247;-50
2023/09/27 05:47:02;;;;;;;5.13;3.10;;;;;;;10.29;100.00;148716.38;4896812;28;20234;-50
2023/09/27 05:49:31;;;;;;;5.97;3.13;;;;;;;10.38;100.00;148737.53;4897512;29;20241;-50
2023/09/27 05:52:03;;;;;;;7.23;3.20;;;;;;;10.39;100.00;148741.34;4895055;28;20240;-50
2023/09/27 05:54:30;;;;;;;5.30;3.00;;;;;;;10.40;100.00;148742.56;4914330;29;20241;-50
2023/09/27 05:57:02;;;;;;;4.37;3.13;;;;;;;10.40;100.00;148743.84;4900853;28;20323;-50
2023/09/27 05:59:28;;;;;;;6.40;3.10;;;;;;;10.44;100.00;148753.78;4900262;29;20251;-53
2023/09/27 06:02:30;;;;;;;3.57;3.10;;;;;;;10.50;100.00;148767.47;4899732;29;20342;-50
2023/09/27 06:04:57;;;;;;;4.37;3.13;;;;;;;10.52;100.00;148771.22;4898092;29;20911;-50
2023/09/27 06:07:25;;;;;;;4.73;3.57;;;;;;;10.58;100.00;148786.19;4902902;28;20250;-52
2023/09/27 06:09:52;;;;;;;3.83;3.00;;;;;;;10.59;100.00;148788.69;4898370;29;20231;-50
2023/09/27 06:12:19;;;;;;;4.93;3.00;;;;;;;10.62;100.00;148796.09;4905201;29;20243;-50
2023/09/27 06:14:45;;;;;;;5.17;3.20;;;;;;;10.71;100.00;148818.53;4901841;29;20229;-50
2023/09/27 06:17:15;;;;;;;7.13;2.93;;;;;;;10.75;100.00;148827.25;4917962;29;20242;-50
2023/09/27 06:19:42;;;;;;;4.93;3.17;;;;;;;10.78;100.00;148835.97;4899136;29;20250;-50
2023/09/27 06:22:09;;;;;;;3.67;2.80;;;;;;;10.80;100.00;148838.44;4900701;28;20701;-50
2023/09/27 06:24:37;;;;;;;4.93;3.30;;;;;;;10.84;100.00;148849.69;4897293;29;20709;-51
2023/09/27 06:27:03;;;;;;;4.67;2.57;;;;;;;10.92;100.00;148869.63;4901096;29;20249;-50
2023/09/27 06:29:30;;;;;;;2.70;2.40;;;;;;;10.94;100.00;148873.34;4897706;29;20245;-51
2023/09/27 06:32:02;;;;;;;4.93;2.63;;;;;;;10.97;100.00;148879.59;4898001;29;20246;-51
2023/09/27 06:34:28;;;;;;;6.63;3.47;;;;;;;11.00;100.00;148888.28;4900305;29;20247;-50
2023/09/27 06:37:00;;;;;;;5.23;3.20;;;;;;;11.03;100.00;148895.75;4897463;28;20680;-50
2023/09/27 06:39:26;;;;;;;4.87;3.07;;;;;;;11.07;100.00;148904.50;4913028;29;20238;-50
2023/09/27 06:41:55;;;;;;;3.37;2.67;;;;;;;11.11;100.00;148914.47;4897009;29;29519;-50
2023/09/27 06:44:24;;;;;;;5.80;3.00;;;;;;;11.14;100.00;148920.69;4910366;29;20242;-51
2023/09/27 06:46:52;;;;;;;5.17;3.10;;;;;;;11.20;100.00;148935.63;4897210;29;20234;-50
2023/09/27 06:49:18;;;;;;;5.10;3.33;;;;;;;11.29;100.00;148956.78;4898308;29;21203;-51
2023/09/27 06:51:45;;;;;;;4.73;2.97;;;;;;;11.29;100.00;148958.06;4896789;28;20231;-51
2023/09/27 06:54:12;;;;;;;4.83;2.60;;;;;;;11.36;100.00;148974.25;4901248;29;20243;-50
2023/09/27 06:56:39;;;;;;;7.03;3.40;;;;;;;11.35;100.00;148973.03;4898746;29;20239;-50
2023/09/27 06:59:08;;;;;;;4.40;2.70;;;;;;;11.39;100.00;148981.72;4904174;29;20241;-51
2023/09/27 07:01:35;;;;;;;4.37;3.07;;;;;;;11.43;100.00;148990.47;4898485;29;20315;-50
2023/09/27 07:04:03;;;;;;;4.27;3.00;;;;;;;11.45;100.00;148995.44;4899960;29;20239;-50
2023/09/27 07:06:30;;;;;;;4.27;3.07;;;;;;;11.51;100.00;149010.41;4897864;29;20242;-50
2023/09/27 07:08:57;;;;;;;5.40;3.00;;;;;;;11.60;100.00;149031.56;4896635;29;20227;-50
2023/09/27 07:11:24;;;;;;;5.57;3.10;;;;;;;11.63;100.00;149039.03;4900381;29;20242;-51
2023/09/27 07:13:51;;;;;;;3.63;3.03;;;;;;;11.71;100.00;149059.00;4897074;29;20262;-50
2023/09/27 07:16:26;;;;;;;4.07;2.97;;;;;;;11.78;100.00;149076.44;4899875;29;20227;-52
2023/09/27 07:18:53;;;;;;;3.30;2.80;;;;;;;11.80;100.00;149080.16;4893660;29;20702;-50
2023/09/27 07:21:20;;;;;;;3.70;2.80;;;;;;;11.81;100.00;149083.91;4903190;29;20244;-53
2023/09/27 07:23:47;;;;;;;3.30;2.80;;;;;;;11.84;100.00;149090.13;4895186;29;20270;-51
2023/09/27 07:26:14;;;;;;;5.00;3.03;;;;;;;11.87;100.00;149097.59;4899311;29;20789;-52
2023/09/27 07:28:40;;;;;;;5.93;3.30;;;;;;;11.94;100.00;149115.06;4894484;29;20228;-53
2023/09/27 07:31:08;;;;;;;5.10;3.23;;;;;;;12.04;100.00;149137.56;4897638;29;20230;-53
2023/09/27 07:33:36;;;;;;;5.47;3.10;;;;;;;12.14;100.00;149162.50;4896738;29;20251;-53
2023/09/27 07:36:03;;;;;;;5.30;3.20;;;;;;;12.27;100.00;149192.41;4897367;29;20244;-52
2023/09/27 07:38:30;;;;;;;6.33;3.50;;;;;;;12.41;100.00;149227.31;4900890;29;20243;-51
2023/09/27 07:40:57;;;;;;;4.87;2.87;;;;;;;12.51;100.00;149252.28;4896947;29;20247;-53
2023/09/27 07:43:24;;;;;;;4.83;3.23;;;;;;;12.68;100.00;149293.41;4914945;29;20696;-53
2023/09/27 07:45:52;;;;;;;4.73;3.30;;;;;;;12.85;100.00;149334.53;4897700;29;20235;-53
2023/09/27 07:48:21;;;;;;;4.90;2.93;;;;;;;13.03;100.00;149375.72;4898770;29;20782;-51
2023/09/27 07:50:49;;;;;;;7.63;4.00;;;;;;;13.24;100.00;149426.88;4896723;29;20232;-53
2023/09/27 07:53:16;;;;;;;5.33;4.20;;;;;;;13.41;100.00;149469.34;4915125;28;20302;-53
2023/09/27 07:55:48;;;;;;;7.83;4.03;;;;;;;13.55;100.00;149501.78;4894762;29;20727;-52
2023/09/27 07:58:15;;;;;;;5.07;4.30;;;;;;;13.67;100.00;149531.72;4897310;28;20270;-54
2023/09/27 08:00:44;;;;;;;7.30;4.53;;;;;;;13.87;100.00;149579.13;4911125;29;20225;-52
2023/09/27 08:03:11;;;;;;;7.10;4.83;;;;;;;13.95;100.00;149599.09;4901326;29;20281;-51
2023/09/27 08:05:43;;;;;;;13.37;6.17;;;;;;;14.03;100.00;149619.06;4910304;29;20226;-50
2023/09/27 08:08:13;;;;;;;7.53;5.03;;;;;;;14.10;100.00;149635.31;4897438;29;20243;-52
2023/09/27 08:10:43;;;;;;;6.20;5.23;;;;;;;14.16;100.00;149650.28;4896259;29;20436;-50
2023/09/27 08:13:12;;;;;;;7.50;5.80;;;;;;;14.20;100.00;149659.00;4893140;29;20372;-51
2023/09/27 08:15:42;;;;;;;8.60;5.67;;;;;;;14.23;100.00;149665.28;4897480;29;20232;-53
2023/09/27 08:18:09;;;;;;;6.67;5.97;;;;;;;14.26;100.00;149672.75;4895391;29;20224;-51
2023/09/27 08:20:37;;;;;;;10.93;6.27;;;;;;;14.30;100.00;149683.97;4896401;29;20273;-51
2023/09/27 08:23:04;;;;;;;8.43;5.47;;;;;;;14.42;100.00;149711.44;4897295;29;20245;-51
2023/09/27 08:25:32;;;;;;;6.13;4.93;;;;;;;14.46;100.00;149721.44;4899839;29;20251;-51
2023/09/27 08:28:01;;;;;;;5.93;5.03;;;;;;;14.54;100.00;149740.16;4898436;28;20242;-51
2023/09/27 08:30:28;;;;;;;6.00;4.75;;;;;;;14.67;100.00;149771.38;4897096;29;20448;-51
2023/09/27 08:32:55;;;;;;;5.60;4.50;;;;;;;14.74;100.00;149788.91;4893274;29;21181;-53
2023/09/27 08:35:22;;;;;;;7.83;5.33;;;;;;;14.82;100.00;149808.91;4899725;29;20593;-54
2023/09/27 08:37:48;;;;;;;8.37;4.80;;;;;;;14.95;100.00;149838.81;4894557;28;20238;-53
2023/09/27 08:40:16;;;;;;;5.43;4.50;;;;;;;15.07;100.00;149867.59;4896022;29;20233;-54
2023/09/27 08:42:44;;;;;;;8.37;5.17;;;;;;;15.15;100.00;149887.56;4911931;29;20228;-55
2023/09/27 08:45:13;;;;;;;9.50;5.10;;;;;;;15.25;100.00;149911.28;4900294;29;20245;-55
2023/09/27 08:47:42;;;;;;;5.77;4.07;;;;;;;15.32;100.00;149928.78;4896365;29;20245;-52
2023/09/27 08:50:11;;;;;;;8.23;4.53;;;;;;;15.40;100.00;149948.75;4896862;29;20328;-52
2023/09/27 08:52:38;;;;;;;4.90;3.83;;;;;;;15.49;100.00;149971.25;4894489;28;20320;-52
2023/09/27 08:55:07;;;;;;;6.83;4.70;;;;;;;15.50;100.00;149972.47;4897465;29;20264;-53
2023/09/27 08:57:37;;;;;;;6.60;5.07;;;;;;;15.63;100.00;150003.75;4895910;29;20225;-52
2023/09/27 09:00:14;;;;;;;6.03;4.53;;;;;;;15.65;100.00;150008.75;4896688;29;20713;-52
2023/09/27 09:02:44;;;;;;;5.93;4.33;;;;;;;15.72;100.00;150024.97;4892315;29;20722;-52
2023/09/27 09:05:49;;;;;;;8.03;5.33;;;;;;;15.80;100.00;150044.97;4909036;29;20241;-52
2023/09/27 09:08:15;;;;;;;6.20;5.40;;;;;;;15.86;100.00;150058.72;4893729;29;20241;-51
2023/09/27 09:10:44;;;;;;;6.53;5.20;;;;;;;15.98;100.00;150087.50;4907911;29;20875;-51
2023/09/27 09:13:11;;;;;;;9.30;5.93;;;;;;;16.11;100.00;150120.00;4898614;29;20693;-53
2023/09/27 09:15:40;;;;;;;12.13;5.83;;;;;;;16.19;100.00;150138.72;4911867;29;20318;-52
2023/09/27 09:18:12;;;;;;;8.87;6.80;;;;;;;16.16;100.00;150131.22;4900401;28;20312;-51
2023/09/27 09:20:51;;;;;;;7.03;5.57;;;;;;;16.14;100.00;150126.22;4898335;29;20249;-51
2023/09/27 09:23:32;;;;;;;8.53;5.63;;;;;;;16.16;100.00;150132.50;4897966;28;20232;-51
2023/09/27 09:25:59;;;;;;;8.53;6.13;;;;;;;16.20;100.00;150142.50;4893655;29;20235;-52
2023/09/27 09:28:26;;;;;;;10.53;5.87;;;;;;;16.26;100.00;150156.22;4898382;29;20242;-54
2023/09/27 09:30:55;;;;;;;8.23;6.10;;;;;;;16.42;100.00;150193.72;4903104;29;20240;-55
2023/09/27 09:33:24;;;;;;;8.07;5.80;;;;;;;16.46;99.92;150203.72;4899115;29;20318;-55
2023/09/27 09:35:52;;;;;;;6.10;5.27;;;;;;;16.43;100.00;150196.22;4900482;29;20234;-54
2023/09/27 09:38:26;;;;;;;8.17;5.73;;;;;;;16.51;100.00;150216.22;4902517;28;20863;-53
2023/09/27 09:40:54;;;;;;;7.50;5.10;;;;;;;16.65;99.79;150251.22;4896056;29;20687;-54
2023/09/27 09:43:31;;;;;;;7.53;6.03;;;;;;;16.70;99.14;150261.22;4901626;28;20224;-52
2023/09/27 09:46:00;;;;;;;7.43;5.40;;;;;;;16.75;98.45;150274.97;4894795;29;20313;-51
2023/09/27 09:48:27;;;;;;;8.43;5.57;;;;;;;16.89;97.31;150308.75;4900795;29;20231;-52
2023/09/27 09:51:03;;;;;;;7.57;4.90;;;;;;;16.99;97.48;150331.25;4914217;29;20722;-53
2023/09/27 09:53:30;;;;;;;9.27;5.10;;;;;;;17.11;97.14;150362.53;4902395;28;20241;-52
2023/09/27 09:56:00;;;;;;;6.57;4.97;;;;;;;17.13;95.79;150366.28;4896017;29;20245;-51
2023/09/27 09:58:33;;;;;;;6.20;5.03;;;;;;;17.07;96.32;150352.53;4899248;29;20282;-53
2023/09/27 10:01:04;;;;;;;6.43;4.60;;;;;;;17.28;94.95;150402.56;4895933;29;20250;-53
2023/09/27 10:03:32;;;;;;;7.00;5.00;;;;;;;17.44;95.87;150440.09;4901078;28;20241;-52
2023/09/27 10:06:01;;;;;;;8.67;4.90;;;;;;;17.38;94.53;150426.31;4900159;29;20238;-51
2023/09/27 10:08:33;;;;;;;8.57;4.93;;;;;;;17.56;93.12;150470.06;4901371;29;20768;-52
2023/09/27 10:11:03;;;;;;;6.73;4.60;;;;;;;17.59;92.89;150477.56;4896501;29;20673;-51
2023/09/27 10:13:33;;;;;;;5.67;4.37;;;;;;;17.54;93.82;150465.06;4901101;28;20236;-51
2023/09/27 10:16:02;;;;;;;6.23;4.27;;;;;;;17.68;92.59;150498.88;4902331;29;20237;-52
2023/09/27 10:18:34;;;;;;;5.93;4.40;;;;;;;17.67;94.08;150496.38;4903530;28;20230;-51
2023/09/27 10:21:08;;;;;;;6.57;4.37;;;;;;;17.90;92.62;150552.66;4895775;29;20235;-52
2023/09/27 10:23:52;;;;;;;6.60;4.23;;;;;;;17.98;94.99;150571.44;4897539;28;20227;-54
2023/09/27 10:26:19;;;;;;;5.90;4.83;;;;;;;18.09;93.01;150597.75;4902338;29;20246;-52
2023/09/27 10:29:13;;;;;;;9.83;4.93;;;;;;;18.13;93.17;150607.75;4899254;29;20577;-51
2023/09/27 10:32:13;;;;;;;6.77;4.80;;;;;;;18.35;90.73;150661.53;4897655;29;20233;-51
2023/09/27 10:34:42;;;;;;;5.80;4.63;;;;;;;18.38;91.08;150667.81;4896709;29;20253;-51
2023/09/27 10:37:08;;;;;;;9.50;4.47;;;;;;;18.47;89.96;150689.06;4916127;29;20247;-51
2023/09/27 10:39:38;;;;;;;7.13;4.20;;;;;;;18.58;89.80;150717.84;4895961;29;20232;-52
2023/09/27 10:42:05;;;;;;;6.73;3.80;;;;;;;18.66;89.77;150736.66;4915079;29;20232;-52
2023/09/27 10:44:33;;;;;;;6.50;4.27;;;;;;;18.73;90.47;150754.16;4899427;29;20239;-51
2023/09/27 10:47:04;;;;;;;7.90;4.13;;;;;;;18.88;89.15;150790.44;4899036;29;20379;-51
2023/09/27 10:49:38;;;;;;;7.10;4.23;;;;;;;18.82;87.89;150775.44;4900920;29;20241;-51
2023/09/27 10:52:15;;;;;;;5.83;3.90;;;;;;;19.05;87.27;150829.34;4899691;29;20233;-54
2023/09/27 10:54:42;;;;;;;7.80;4.10;;;;;;;19.12;87.22;150846.81;4896371;29;20304;-53
2023/09/27 10:57:09;;;;;;;5.97;4.07;;;;;;;19.23;85.56;150874.38;4899452;29;20240;-51
2023/09/27 10:59:36;;;;;;;8.20;4.37;;;;;;;19.21;85.16;150868.13;4897966;29;20236;-51
2023/09/27 11:02:03;;;;;;;9.80;4.40;;;;;;;19.21;85.48;150868.13;4899429;28;20244;-51
2023/09/27 11:04:30;;;;;;;4.40;3.77;;;;;;;19.42;83.91;150920.72;4899391;29;20237;-53
2023/09/27 11:07:03;;;;;;;8.27;4.40;;;;;;;19.32;86.27;150896.91;4897007;29;20294;-52
2023/09/27 11:09:31;;;;;;;6.23;3.90;;;;;;;19.51;86.30;150942.00;4901306;29;20577;-53
2023/09/27 11:12:03;;;;;;;8.07;4.37;;;;;;;19.52;85.44;150944.50;4897238;29;20257;-52
2023/09/27 11:14:32;;;;;;;4.50;3.23;;;;;;;19.73;84.69;150995.81;4902897;29;20237;-52
2023/09/27 11:17:17;;;;;;;4.47;3.63;;;;;;;19.88;83.88;151030.91;4897505;29;20267;-52
2023/09/27 11:19:43;;;;;;;5.27;4.10;;;;;;;19.88;82.03;151032.16;4898273;29;20320;-51
2023/09/27 11:22:10;;;;;;;7.67;3.80;;;;;;;20.07;81.40;151077.31;4901419;28;20230;-54
2023/09/27 11:24:39;;;;;;;5.50;3.83;;;;;;;20.14;80.98;151094.81;4897810;29;20602;-52
2023/09/27 11:27:07;;;;;;;5.80;3.43;;;;;;;20.39;80.14;151153.72;4898978;29;20723;-54
2023/09/27 11:29:33;;;;;;;5.37;3.67;;;;;;;20.58;80.67;151200.06;4902734;29;20329;-54
2023/09/27 11:32:02;;;;;;;8.00;3.97;;;;;;;20.49;79.17;151178.78;4897745;29;20247;-51